DENIK EDLW-EDLW

Flight info

Callsign DENIK
Flight time 0h 36m
Altitude 9000
Route
Aircraft BT36/L-BDFGLORY/S

Departure

Time 2026-05-07 09:58
Airport Dortmund Airport (EDLW)

Arrival

Time 2026-05-07 10:34
Airport Dortmund Airport (EDLW)
Time Latitude Longitude Altitude Speed Heading
2026-05-07 09:53 51.51529 7.60722 411 ft 3 kts 80°
2026-05-07 09:54 51.51542 7.60800 414 ft 10 kts 75°
2026-05-07 09:54 51.51564 7.60924 420 ft 13 kts 74°
2026-05-07 09:54 51.51596 7.61083 426 ft 18 kts 65°
2026-05-07 09:54 51.51674 7.61283 426 ft 23 kts 71°
2026-05-07 09:55 51.51745 7.61517 426 ft 24 kts 59°
2026-05-07 09:55 51.51832 7.61762 414 ft 27 kts 61°
2026-05-07 09:55 51.51924 7.62027 412 ft 27 kts 60°
2026-05-07 09:55 51.52015 7.62282 411 ft 26 kts 61°
2026-05-07 09:56 51.52113 7.62378 411 ft 11 kts 335°
2026-05-07 09:56 51.52123 7.62370 412 ft 0 kts 327°
2026-05-07 09:56 51.52124 7.62369 412 ft 1 kts 328°
2026-05-07 09:56 51.52162 7.62334 413 ft 12 kts 332°
2026-05-07 09:57 51.52192 7.62244 413 ft 4 kts 241°
2026-05-07 09:57 51.52191 7.62241 413 ft 4 kts 237°
2026-05-07 09:57 51.52001 7.61715 466 ft 88 kts 244°
2026-05-07 09:57 51.51713 7.60761 967 ft 102 kts 247°
2026-05-07 09:58 51.51404 7.59600 1428 ft 120 kts 250°
2026-05-07 09:58 51.50788 7.58768 1843 ft 126 kts 185°
2026-05-07 09:58 51.49924 7.59028 2015 ft 127 kts 162°
2026-05-07 09:58 51.49080 7.59476 2150 ft 128 kts 152°
2026-05-07 09:59 51.48584 7.60602 2161 ft 130 kts 94°
2026-05-07 09:59 51.48727 7.61999 2167 ft 126 kts 72°
2026-05-07 09:59 51.48988 7.63340 2151 ft 126 kts 68°
2026-05-07 09:59 51.49332 7.64635 2107 ft 127 kts 64°
2026-05-07 10:00 51.49655 7.65892 2046 ft 117 kts 65°
2026-05-07 10:00 51.49961 7.67083 1900 ft 115 kts 65°
2026-05-07 10:00 51.50284 7.68259 1728 ft 116 kts 63°
2026-05-07 10:00 51.50724 7.69293 1501 ft 114 kts 34°
2026-05-07 10:01 51.51472 7.69576 1313 ft 112 kts 353°
2026-05-07 10:01 51.52187 7.69123 1177 ft 103 kts 334°
2026-05-07 10:01 51.52752 7.68632 1072 ft 87 kts 331°
2026-05-07 10:01 51.53251 7.68116 988 ft 84 kts 328°
2026-05-07 10:02 51.53665 7.67487 885 ft 87 kts 297°
2026-05-07 10:02 51.53670 7.66522 828 ft 92 kts 252°
2026-05-07 10:02 51.53348 7.65596 710 ft 95 kts 241°
2026-05-07 10:02 51.53033 7.64685 675 ft 93 kts 244°
2026-05-07 10:03 51.52718 7.63795 605 ft 88 kts 245°
2026-05-07 10:03 51.52425 7.62928 531 ft 88 kts 244°
2026-05-07 10:03 51.52130 7.62077 418 ft 77 kts 244°
2026-05-07 10:03 51.51867 7.61343 460 ft 94 kts 244°
2026-05-07 10:04 51.51518 7.60368 888 ft 106 kts 239°
2026-05-07 10:04 51.51046 7.59379 1311 ft 118 kts 216°
2026-05-07 10:04 51.50205 7.59219 1659 ft 130 kts 163°
2026-05-07 10:04 51.49358 7.59786 1986 ft 133 kts 153°
2026-05-07 10:05 51.48702 7.60785 2040 ft 133 kts 109°
2026-05-07 10:05 51.48719 7.62201 2045 ft 132 kts 69°
2026-05-07 10:05 51.49048 7.63561 2079 ft 131 kts 64°
2026-05-07 10:05 51.49434 7.64889 2087 ft 130 kts 63°
2026-05-07 10:06 51.49851 7.66183 2062 ft 129 kts 58°
2026-05-07 10:06 51.50276 7.67443 1980 ft 128 kts 61°
2026-05-07 10:06 51.50665 7.68715 1907 ft 127 kts 63°
2026-05-07 10:06 51.51047 7.69954 1847 ft 118 kts 57°
2026-05-07 10:07 51.51680 7.70679 1645 ft 115 kts 11°
2026-05-07 10:07 51.52417 7.70416 1512 ft 111 kts 326°
2026-05-07 10:07 51.53008 7.69666 1436 ft 104 kts 323°
2026-05-07 10:07 51.53552 7.68935 1416 ft 99 kts 322°
2026-05-07 10:08 51.53851 7.67974 1312 ft 105 kts 277°
2026-05-07 10:08 51.53687 7.66766 1089 ft 112 kts 250°
2026-05-07 10:08 51.53405 7.65729 923 ft 94 kts 250°
2026-05-07 10:08 51.53094 7.64834 762 ft 92 kts 241°
2026-05-07 10:09 51.52792 7.63967 649 ft 85 kts 246°
2026-05-07 10:09 51.52503 7.63153 585 ft 84 kts 243°
2026-05-07 10:09 51.52227 7.62346 448 ft 76 kts 243°
2026-05-07 10:09 51.52000 7.61696 412 ft 78 kts 242°
2026-05-07 10:10 51.51675 7.60796 776 ft 99 kts 241°
2026-05-07 10:10 51.51275 7.59810 1254 ft 114 kts 236°
2026-05-07 10:10 51.50717 7.58688 1509 ft 143 kts 231°
2026-05-07 10:10 51.49817 7.57987 1790 ft 152 kts 179°
2026-05-07 10:11 51.48880 7.58702 2003 ft 157 kts 128°
2026-05-07 10:11 51.48556 7.60365 2014 ft 158 kts 84°
2026-05-07 10:11 51.48711 7.62047 2012 ft 148 kts 78°
2026-05-07 10:11 51.48925 7.63607 1996 ft 140 kts 66°
2026-05-07 10:12 51.49304 7.65015 1993 ft 135 kts 65°
2026-05-07 10:12 51.49668 7.66383 1988 ft 132 kts 64°
2026-05-07 10:12 51.50027 7.67728 1992 ft 131 kts 63°
2026-05-07 10:12 51.50381 7.69065 1988 ft 129 kts 64°
2026-05-07 10:13 51.50725 7.70378 1991 ft 128 kts 64°
2026-05-07 10:13 51.51140 7.71627 1995 ft 126 kts 47°
2026-05-07 10:13 51.51736 7.72651 1993 ft 125 kts 45°
2026-05-07 10:13 51.52322 7.73675 1994 ft 125 kts 45°
2026-05-07 10:14 51.52929 7.74724 2008 ft 132 kts 45°
2026-05-07 10:14 51.53563 7.75833 2013 ft 137 kts 45°
2026-05-07 10:14 51.54217 7.76976 2007 ft 140 kts 45°
2026-05-07 10:14 51.54884 7.78133 2007 ft 141 kts 45°
2026-05-07 10:15 51.55599 7.79205 2000 ft 141 kts 25°
2026-05-07 10:15 51.56551 7.79451 1999 ft 140 kts 356°
2026-05-07 10:15 51.57374 7.78682 1999 ft 145 kts 304°
2026-05-07 10:15 51.57497 7.77097 1999 ft 151 kts 254°
2026-05-07 10:16 51.56942 7.75671 2005 ft 150 kts 240°
2026-05-07 10:16 51.56421 7.74253 2005 ft 145 kts 242°
2026-05-07 10:16 51.55922 7.72890 1996 ft 139 kts 243°
2026-05-07 10:16 51.55460 7.71562 1837 ft 132 kts 244°
2026-05-07 10:17 51.55015 7.70287 1651 ft 130 kts 243°
2026-05-07 10:17 51.54599 7.69108 1476 ft 106 kts 244°
2026-05-07 10:17 51.54272 7.68192 1311 ft 86 kts 244°
2026-05-07 10:17 51.53996 7.67401 1157 ft 75 kts 243°
2026-05-07 10:18 51.53752 7.66706 1019 ft 70 kts 244°
2026-05-07 10:18 51.53519 7.66041 943 ft 69 kts 242°
2026-05-07 10:18 51.53253 7.65290 909 ft 89 kts 245°
2026-05-07 10:18 51.52891 7.64215 1088 ft 124 kts 244°
2026-05-07 10:19 51.52438 7.62926 1379 ft 141 kts 242°
2026-05-07 10:19 51.51936 7.61511 1668 ft 150 kts 243°
2026-05-07 10:19 51.51441 7.60040 1877 ft 147 kts 244°
2026-05-07 10:19 51.50983 7.58600 1967 ft 145 kts 234°
2026-05-07 10:20 51.50073 7.58024 1932 ft 150 kts 167°
2026-05-07 10:20 51.49072 7.58481 1945 ft 146 kts 161°
2026-05-07 10:20 51.48153 7.59063 1927 ft 142 kts 136°
2026-05-07 10:20 51.47829 7.60457 1913 ft 134 kts 77°
2026-05-07 10:21 51.48248 7.61772 1874 ft 133 kts 57°
2026-05-07 10:21 51.48664 7.62998 1906 ft 117 kts 59°
2026-05-07 10:21 51.49060 7.64096 1878 ft 111 kts 56°
2026-05-07 10:21 51.49461 7.65157 1845 ft 111 kts 55°
2026-05-07 10:22 51.49878 7.66211 1800 ft 112 kts 54°
2026-05-07 10:22 51.50289 7.67298 1776 ft 115 kts 59°
2026-05-07 10:22 51.50677 7.68420 1747 ft 115 kts 58°
2026-05-07 10:22 51.51284 7.69186 1586 ft 118 kts 12°
2026-05-07 10:23 51.52044 7.68874 1401 ft 112 kts 324°
2026-05-07 10:23 51.52575 7.68130 1201 ft 94 kts 317°
2026-05-07 10:23 51.53012 7.67408 1055 ft 88 kts 316°
2026-05-07 10:23 51.53407 7.66676 898 ft 87 kts 296°
2026-05-07 10:24 51.53394 7.65705 761 ft 93 kts 250°
2026-05-07 10:24 51.53077 7.64805 688 ft 90 kts 243°
2026-05-07 10:24 51.52777 7.63930 591 ft 89 kts 243°
2026-05-07 10:24 51.52475 7.63059 524 ft 89 kts 246°
2026-05-07 10:25 51.52185 7.62222 426 ft 79 kts 243°
2026-05-07 10:25 51.51931 7.61500 439 ft 93 kts 241°
2026-05-07 10:25 51.51580 7.60532 909 ft 104 kts 244°
2026-05-07 10:25 51.51216 7.59407 1433 ft 125 kts 247°
2026-05-07 10:26 51.50619 7.58415 1803 ft 128 kts 202°
2026-05-07 10:26 51.49758 7.58503 2008 ft 130 kts 156°
2026-05-07 10:26 51.48877 7.59036 2021 ft 139 kts 157°
2026-05-07 10:26 51.48229 7.60088 2048 ft 136 kts 108°
2026-05-07 10:27 51.48201 7.61576 2098 ft 130 kts 74°
2026-05-07 10:27 51.48502 7.62871 2231 ft 119 kts 61°
2026-05-07 10:27 51.48909 7.64028 2292 ft 116 kts 57°
2026-05-07 10:27 51.49329 7.65060 2206 ft 101 kts 51°
2026-05-07 10:28 51.49720 7.65907 2048 ft 91 kts 51°
2026-05-07 10:28 51.50093 7.66690 1900 ft 85 kts 48°
2026-05-07 10:28 51.50581 7.67127 1687 ft 81 kts
2026-05-07 10:28 51.51136 7.66972 1456 ft 83 kts 334°
2026-05-07 10:29 51.51641 7.66547 1181 ft 81 kts 332°
2026-05-07 10:29 51.52114 7.66053 958 ft 80 kts 314°
2026-05-07 10:29 51.52358 7.65234 746 ft 81 kts 287°
2026-05-07 10:30 51.52310 7.62994 996 ft 123 kts 256°
2026-05-07 10:30 51.51926 7.61718 1254 ft 133 kts 242°
2026-05-07 10:30 51.51445 7.60391 1559 ft 139 kts 242°
2026-05-07 10:30 51.50950 7.59064 1879 ft 138 kts 240°
2026-05-07 10:31 51.50364 7.57863 2086 ft 140 kts 211°
2026-05-07 10:31 51.49424 7.57860 2074 ft 144 kts 149°
2026-05-07 10:31 51.48675 7.58924 2130 ft 142 kts 131°
2026-05-07 10:31 51.48214 7.60216 2153 ft 134 kts 87°
2026-05-07 10:32 51.48662 7.61515 2030 ft 144 kts 47°
2026-05-07 10:32 51.49342 7.62802 1973 ft 153 kts 49°
2026-05-07 10:32 51.50003 7.63998 1948 ft 123 kts 44°
2026-05-07 10:32 51.50603 7.64684 1868 ft 96 kts 16°
2026-05-07 10:33 51.51225 7.64845 1752 ft 89 kts
2026-05-07 10:33 51.51814 7.64952 1557 ft 80 kts
2026-05-07 10:33 51.52340 7.64771 1216 ft 83 kts 324°
2026-05-07 10:33 51.52601 7.63956 881 ft 88 kts 277°
2026-05-07 10:34 51.52449 7.63030 556 ft 81 kts 246°
2026-05-07 10:34 51.52218 7.62323 413 ft 58 kts 243°
2026-05-07 10:34 51.52068 7.61895 412 ft 40 kts 244°
2026-05-07 10:34 51.51935 7.61508 410 ft 40 kts 239°
2026-05-07 10:35 51.51800 7.61129 413 ft 36 kts 239°
2026-05-07 10:35 51.51685 7.60794 411 ft 33 kts 242°
2026-05-07 10:35 51.51572 7.60614 408 ft 19 kts 158°
2026-05-07 10:35 51.51530 7.60730 411 ft 0 kts 72°
2026-05-07 10:36 51.51531 7.60732 411 ft 1 kts 73°
2026-05-07 10:36 51.51542 7.60794 414 ft 10 kts 76°
2026-05-07 10:36 51.51564 7.60926 420 ft 13 kts 75°
2026-05-07 10:36 51.51541 7.61057 426 ft 16 kts 171°
2026-05-07 10:37 51.51457 7.60903 426 ft 23 kts 245°
2026-05-07 10:37 51.51371 7.60650 432 ft 27 kts 245°
2026-05-07 10:37 51.51275 7.60390 441 ft 29 kts 240°
2026-05-07 10:37 51.51177 7.60159 441 ft 19 kts 186°
2026-05-07 10:38 51.51204 7.60318 438 ft 18 kts 61°
2026-05-07 10:38 51.51216 7.60478 441 ft 0 kts 105°